Time;durP1;ratioP1;P1;durP2;ratioP2;P2;SDS_P1;SDS_P2;PMS_P1;PMS_P2;Temp;Humidity;BMP_temperature;BMP_pressure;BME280_temperature;BME280_humidity;BME280_pressure;Samples;Min_cycle;Max_cycle;Signal;HPM_P1;HPM_P2
2022/06/07 00:00:08;;;;;;;;;;;26.00;49.40;;;;;;1544003;75;715;-60
2022/06/07 00:02:10;;;;;;;;;;;26.00;49.40;;;;;;1540332;75;729;-59
2022/06/07 00:04:12;;;;;;;;;;;26.00;49.40;;;;;;1542880;75;726;-59
2022/06/07 00:06:14;;;;;;;;;;;26.10;49.30;;;;;;1546231;75;1940;-61
2022/06/07 00:08:18;;;;;;;;;;;26.00;49.40;;;;;;1545173;76;671;-59
2022/06/07 00:10:22;;;;;;;;;;;26.00;49.40;;;;;;1544159;75;791;-59
2022/06/07 00:12:24;;;;;;;;;;;26.00;49.40;;;;;;1539577;76;1089;-59
2022/06/07 00:14:26;;;;;;;;;;;25.90;48.90;;;;;;1546672;75;816;-59
2022/06/07 00:16:28;;;;;;;;;;;26.00;49.40;;;;;;1541015;76;1089;-59
2022/06/07 00:18:30;;;;;;;;;;;25.90;48.80;;;;;;1538845;75;769;-59
2022/06/07 00:20:31;;;;;;;;;;;25.90;48.80;;;;;;1543793;75;1510;-61
2022/06/07 00:22:33;;;;;;;;;;;25.90;48.80;;;;;;1544858;75;728;-59
2022/06/07 00:24:35;;;;;;;;;;;25.90;48.80;;;;;;1543862;76;625;-60
2022/06/07 00:26:38;;;;;;;;;;;26.00;49.40;;;;;;1543650;76;1959;-59
2022/06/07 00:28:40;;;;;;;;;;;26.00;49.40;;;;;;1543920;76;826;-59
2022/06/07 00:30:41;;;;;;;;;;;25.90;48.80;;;;;;1542830;75;689;-60
2022/06/07 00:32:44;;;;;;;;;;;26.00;49.50;;;;;;1544088;75;743;-59
2022/06/07 00:34:46;;;;;;;;;;;25.90;48.90;;;;;;1542345;75;1391;-60
2022/06/07 00:36:48;;;;;;;;;;;25.90;48.90;;;;;;1546882;75;1152;-59
2022/06/07 00:38:50;;;;;;;;;;;26.00;49.60;;;;;;1544685;76;692;-58
2022/06/07 00:40:52;;;;;;;;;;;25.90;48.90;;;;;;1541267;75;747;-59
2022/06/07 00:42:54;;;;;;;;;;;26.00;49.50;;;;;;1542007;76;791;-59
2022/06/07 00:44:56;;;;;;;;;;;26.00;49.50;;;;;;1542722;76;773;-59
2022/06/07 00:46:59;;;;;;;;;;;26.00;49.50;;;;;;1544531;76;1943;-59
2022/06/07 00:49:00;;;;;;;;;;;26.00;49.50;;;;;;1543890;75;1565;-59
2022/06/07 00:51:12;;;;;;;;;;;26.00;49.60;;;;;;1541771;75;949;-61
2022/06/07 00:53:18;;;;;;;;;;;26.10;49.40;;;;;;1543820;76;734;-60
2022/06/07 00:55:20;;;;;;;;;;;26.10;49.50;;;;;;1537727;75;1681;-60
2022/06/07 00:57:22;;;;;;;;;;;26.00;49.50;;;;;;1546428;76;764;-60
2022/06/07 00:59:24;;;;;;;;;;;26.00;49.50;;;;;;1538664;76;795;-60
2022/06/07 01:01:26;;;;;;;;;;;26.00;49.60;;;;;;1541573;75;789;-61
2022/06/07 01:03:28;;;;;;;;;;;26.00;49.60;;;;;;1544883;75;1557;-62
2022/06/07 01:05:30;;;;;;;;;;;26.00;49.60;;;;;;1545190;75;1119;-59
2022/06/07 01:12:11;;;;;;;;;;;25.90;49.10;;;;;;1546252;75;1643;-60
2022/06/07 01:14:13;;;;;;;;;;;26.00;49.60;;;;;;1542223;75;760;-60
2022/06/07 01:16:15;;;;;;;;;;;25.90;49.10;;;;;;1545121;75;1526;-59
2022/06/07 01:18:17;;;;;;;;;;;25.90;49.10;;;;;;1541725;75;788;-59
2022/06/07 01:20:19;;;;;;;;;;;25.90;49.10;;;;;;1539792;76;780;-60
2022/06/07 01:22:21;;;;;;;;;;;25.90;49.10;;;;;;1542107;75;783;-61
2022/06/07 01:24:23;;;;;;;;;;;25.90;49.20;;;;;;1543137;76;761;-59
2022/06/07 01:26:25;;;;;;;;;;;25.90;49.20;;;;;;1540281;76;1940;-59
2022/06/07 01:28:26;;;;;;;;;;;25.90;49.20;;;;;;1542226;75;794;-61
2022/06/07 01:30:28;;;;;;;;;;;25.90;49.20;;;;;;1543097;75;1569;-59
2022/06/07 01:32:30;;;;;;;;;;;25.90;49.20;;;;;;1544126;76;760;-60
2022/06/07 01:34:32;;;;;;;;;;;25.90;49.20;;;;;;1542616;76;787;-61
2022/06/07 01:36:34;;;;;;;;;;;25.90;49.20;;;;;;1543901;76;1097;-59
2022/06/07 01:38:36;;;;;;;;;;;25.90;49.20;;;;;;1541071;76;705;-60
2022/06/07 01:42:42;;;;;;;;;;;25.90;49.20;;;;;;1495580;76;1105;-59
2022/06/07 01:44:44;;;;;;;;;;;25.90;49.20;;;;;;1543887;75;1509;-62
2022/06/07 01:46:46;;;;;;;;;;;25.90;49.20;;;;;;1540458;76;1939;-59
2022/06/07 01:48:48;;;;;;;;;;;25.90;49.30;;;;;;1544819;75;753;-60
2022/06/07 01:50:51;;;;;;;;;;;25.90;49.20;;;;;;1553995;76;648;-60
2022/06/07 01:52:53;;;;;;;;;;;25.90;49.20;;;;;;1545832;76;1106;-59
2022/06/07 01:54:55;;;;;;;;;;;25.90;49.20;;;;;;1544122;76;925;-60
2022/06/07 01:56:57;;;;;;;;;;;25.90;49.20;;;;;;1535328;75;1098;-60
2022/06/07 01:58:59;;;;;;;;;;;25.90;49.10;;;;;;1550898;76;1546;-60
2022/06/07 02:01:01;;;;;;;;;;;25.90;49.20;;;;;;1543440;75;683;-60
2022/06/07 02:03:03;;;;;;;;;;;25.90;49.20;;;;;;1543782;76;686;-59
2022/06/07 02:05:05;;;;;;;;;;;25.90;49.20;;;;;;1541798;76;734;-60
2022/06/07 02:07:07;;;;;;;;;;;25.80;49.20;;;;;;1542348;76;1949;-59
2022/06/07 02:09:09;;;;;;;;;;;25.90;49.20;;;;;;1543680;76;759;-60
2022/06/07 02:11:12;;;;;;;;;;;25.90;49.20;;;;;;1550078;75;744;-60
2022/06/07 02:13:14;;;;;;;;;;;25.80;49.20;;;;;;1541698;75;1520;-60
2022/06/07 02:15:15;;;;;;;;;;;25.80;49.20;;;;;;1545934;75;1147;-60
2022/06/07 02:17:17;;;;;;;;;;;25.80;49.20;;;;;;1544462;76;700;-60
2022/06/07 02:19:19;;;;;;;;;;;25.80;49.20;;;;;;1537759;76;758;-62
2022/06/07 02:21:24;;;;;;;;;;;25.80;49.20;;;;;;1540308;76;718;-60
2022/06/07 02:23:26;;;;;;;;;;;25.80;49.20;;;;;;1539778;75;849;-60
2022/06/07 02:25:28;;;;;;;;;;;25.90;49.20;;;;;;1546443;75;1120;-59
2022/06/07 02:27:30;;;;;;;;;;;25.90;49.20;;;;;;1546938;75;1939;-61
2022/06/07 02:29:33;;;;;;;;;;;25.80;49.20;;;;;;1543909;76;734;-59
2022/06/07 02:31:35;;;;;;;;;;;25.80;49.20;;;;;;1543006;76;720;-61
2022/06/07 02:33:37;;;;;;;;;;;25.90;49.20;;;;;;1542554;75;694;-60
2022/06/07 02:35:40;;;;;;;;;;;25.80;49.20;;;;;;1543921;76;1112;-60
2022/06/07 02:37:41;;;;;;;;;;;25.80;49.20;;;;;;1559259;75;703;-59
2022/06/07 02:39:43;;;;;;;;;;;25.80;49.20;;;;;;1546463;76;734;-60
2022/06/07 02:41:45;;;;;;;;;;;25.80;49.20;;;;;;1541599;75;1531;-59
2022/06/07 02:43:47;;;;;;;;;;;25.80;49.30;;;;;;1542796;76;788;-59
2022/06/07 02:45:49;;;;;;;;;;;25.80;49.20;;;;;;1551665;75;1091;-59
2022/06/07 02:47:51;;;;;;;;;;;25.80;49.20;;;;;;1544675;76;1956;-59
2022/06/07 02:49:53;;;;;;;;;;;25.80;49.20;;;;;;1543655;75;759;-62
2022/06/07 02:51:55;;;;;;;;;;;25.80;49.30;;;;;;1536235;76;679;-60
2022/06/07 02:53:57;;;;;;;;;;;25.80;49.30;;;;;;1545352;75;775;-61
2022/06/07 02:55:59;;;;;;;;;;;25.90;49.20;;;;;;1553801;75;1539;-59
2022/06/07 02:58:01;;;;;;;;;;;25.80;49.30;;;;;;1544747;76;776;-60
2022/06/07 03:00:04;;;;;;;;;;;25.90;49.30;;;;;;1548154;75;784;-59
2022/06/07 03:02:06;;;;;;;;;;;25.80;49.40;;;;;;1552251;75;741;-59
2022/06/07 03:04:08;;;;;;;;;;;25.80;49.40;;;;;;1539838;76;693;-60
2022/06/07 03:06:10;;;;;;;;;;;25.90;49.60;;;;;;1544830;75;1141;-59
2022/06/07 03:08:15;;;;;;;;;;;25.90;49.60;;;;;;1550554;75;1953;-59
2022/06/07 03:10:15;;;;;;;;;;;25.90;49.60;;;;;;1544343;76;1697;-58
2022/06/07 03:12:17;;;;;;;;;;;25.90;49.60;;;;;;1546350;76;791;-59
2022/06/07 03:14:19;;;;;;;;;;;25.80;49.60;;;;;;1550030;76;655;-61
2022/06/07 03:16:21;;;;;;;;;;;25.80;49.60;;;;;;1538158;75;1182;-60
2022/06/07 03:18:23;;;;;;;;;;;25.80;49.70;;;;;;1541692;75;767;-59
2022/06/07 03:20:25;;;;;;;;;;;25.90;49.50;;;;;;1539910;76;773;-59
2022/06/07 03:22:27;;;;;;;;;;;25.80;49.50;;;;;;1544372;76;674;-60
2022/06/07 03:24:28;;;;;;;;;;;25.80;49.60;;;;;;1542732;76;1497;-60
2022/06/07 03:26:30;;;;;;;;;;;25.80;49.60;;;;;;1537709;75;1165;-59
2022/06/07 03:28:32;;;;;;;;;;;25.80;49.60;;;;;;1532739;76;1930;-59
2022/06/07 03:30:34;;;;;;;;;;;25.80;49.60;;;;;;1542785;76;717;-60
2022/06/07 03:32:38;;;;;;;;;;;25.90;49.60;;;;;;1535336;75;709;-60
2022/06/07 03:34:40;;;;;;;;;;;25.80;49.50;;;;;;1539285;76;736;-60
2022/06/07 03:36:41;;;;;;;;;;;25.80;49.40;;;;;;1535708;75;1130;-59
2022/06/07 03:38:43;;;;;;;;;;;25.80;49.50;;;;;;1544291;76;1695;-62
2022/06/07 03:40:45;;;;;;;;;;;25.70;49.40;;;;;;1548806;76;751;-59
2022/06/07 03:42:47;;;;;;;;;;;25.70;49.40;;;;;;1537755;76;775;-60
2022/06/07 03:44:50;;;;;;;;;;;25.70;49.50;;;;;;1548658;75;747;-59
2022/06/07 03:46:53;;;;;;;;;;;25.70;49.50;;;;;;1537793;76;1146;-59
2022/06/07 03:48:55;;;;;;;;;;;25.80;49.40;;;;;;1545809;75;1925;-60
2022/06/07 03:50:57;;;;;;;;;;;25.70;49.40;;;;;;1538100;75;1483;-60
2022/06/07 03:53:00;;;;;;;;;;;25.70;49.40;;;;;;1541424;76;666;-59
2022/06/07 03:55:02;;;;;;;;;;;25.70;49.40;;;;;;1543862;76;737;-59
2022/06/07 03:57:04;;;;;;;;;;;25.60;49.40;;;;;;1544009;76;1071;-59
2022/06/07 03:59:06;;;;;;;;;;;25.60;49.50;;;;;;1542530;75;706;-61
2022/06/07 04:01:08;;;;;;;;;;;25.70;49.40;;;;;;1543092;76;789;-61
2022/06/07 04:03:10;;;;;;;;;;;25.70;49.40;;;;;;1544875;75;703;-59
2022/06/07 04:05:12;;;;;;;;;;;25.60;49.50;;;;;;1542862;76;1478;-59
2022/06/07 04:09:40;;;;;;;;;;;25.60;49.60;;;;;;1543805;76;652;-59
2022/06/07 04:11:41;;;;;;;;;;;25.60;49.70;;;;;;1543392;76;1334;-59
2022/06/07 04:13:43;;;;;;;;;;;25.60;49.70;;;;;;1542599;75;993;-60
2022/06/07 04:15:45;;;;;;;;;;;25.50;49.70;;;;;;1541604;76;1175;-59
2022/06/07 04:17:48;;;;;;;;;;;25.60;49.60;;;;;;1543299;76;766;-60
2022/06/07 04:19:49;;;;;;;;;;;25.50;49.70;;;;;;1543605;76;1376;-61
2022/06/07 04:21:51;;;;;;;;;;;25.60;49.60;;;;;;1542065;76;878;-59
2022/06/07 04:23:53;;;;;;;;;;;25.60;49.70;;;;;;1538216;76;745;-60
2022/06/07 04:25:55;;;;;;;;;;;25.50;49.70;;;;;;1543555;75;1141;-60
2022/06/07 04:27:57;;;;;;;;;;;25.60;49.60;;;;;;1544126;76;1951;-59
2022/06/07 04:29:59;;;;;;;;;;;25.50;49.60;;;;;;1546487;76;731;-60
2022/06/07 04:32:01;;;;;;;;;;;25.50;49.50;;;;;;1540338;75;787;-58
2022/06/07 04:34:03;;;;;;;;;;;25.50;49.50;;;;;;1544086;76;1578;-58
2022/06/07 04:36:06;;;;;;;;;;;25.60;49.40;;;;;;1543682;76;1152;-59
2022/06/07 04:38:08;;;;;;;;;;;25.60;49.40;;;;;;1539703;76;1877;-60
2022/06/07 04:40:11;;;;;;;;;;;25.60;49.40;;;;;;1544142;76;742;-58
2022/06/07 04:42:12;;;;;;;;;;;25.60;49.30;;;;;;1543255;75;750;-60
2022/06/07 04:44:14;;;;;;;;;;;25.50;49.40;;;;;;1539740;76;745;-59
2022/06/07 04:46:16;;;;;;;;;;;25.50;49.50;;;;;;1547751;76;1129;-59
2022/06/07 04:48:18;;;;;;;;;;;25.60;49.40;;;;;;1543466;75;1928;-59
2022/06/07 04:50:20;;;;;;;;;;;25.50;49.50;;;;;;1540946;75;780;-60
2022/06/07 04:52:22;;;;;;;;;;;25.50;49.50;;;;;;1535708;76;778;-59
2022/06/07 04:54:24;;;;;;;;;;;25.50;49.60;;;;;;1540436;76;726;-61
2022/06/07 04:56:26;;;;;;;;;;;25.50;49.50;;;;;;1542994;75;1142;-64
2022/06/07 04:58:28;;;;;;;;;;;25.50;49.60;;;;;;1543551;76;706;-60
2022/06/07 05:00:30;;;;;;;;;;;25.40;49.70;;;;;;1539384;75;692;-59
2022/06/07 05:02:32;;;;;;;;;;;25.50;49.70;;;;;;1546749;75;1527;-60
2022/06/07 05:04:34;;;;;;;;;;;25.50;49.80;;;;;;1542046;76;761;-59
2022/06/07 05:06:37;;;;;;;;;;;25.40;49.70;;;;;;1543609;75;1093;-59
2022/06/07 05:08:39;;;;;;;;;;;25.50;49.60;;;;;;1544197;75;1923;-61
2022/06/07 05:10:41;;;;;;;;;;;25.50;49.50;;;;;;1549588;75;729;-58
2022/06/07 05:12:43;;;;;;;;;;;25.60;49.40;;;;;;1546432;76;834;-59
2022/06/07 05:14:45;;;;;;;;;;;25.50;49.40;;;;;;1560433;75;829;-59
2022/06/07 05:16:48;;;;;;;;;;;25.50;49.40;;;;;;1552064;75;1550;-59
2022/06/07 05:18:50;;;;;;;;;;;25.60;49.40;;;;;;1537432;75;819;-58
2022/06/07 05:20:52;;;;;;;;;;;25.60;49.40;;;;;;1546003;75;742;-58
2022/06/07 05:22:54;;;;;;;;;;;25.70;49.40;;;;;;1549645;75;740;-58
2022/06/07 05:24:56;;;;;;;;;;;25.60;49.50;;;;;;1544099;75;802;-59
2022/06/07 05:26:59;;;;;;;;;;;25.70;49.40;;;;;;1540792;76;1071;-58
2022/06/07 05:29:00;;;;;;;;;;;25.70;49.40;;;;;;1543825;75;1958;-58
2022/06/07 05:31:02;;;;;;;;;;;25.70;49.30;;;;;;1543859;75;1716;-60
2022/06/07 05:33:04;;;;;;;;;;;25.70;49.30;;;;;;1543681;76;796;-60
2022/06/07 05:35:06;;;;;;;;;;;25.80;49.30;;;;;;1543182;75;773;-58
2022/06/07 05:37:10;;;;;;;;;;;25.70;49.40;;;;;;1546547;76;1093;-60
2022/06/07 05:39:13;;;;;;;;;;;25.70;49.50;;;;;;1543887;75;746;-59
2022/06/07 05:41:22;;;;;;;;;;;25.60;49.50;;;;;;1541816;75;1834;-58
2022/06/07 05:43:24;;;;;;;;;;;25.60;49.50;;;;;;1549785;75;1516;-57
2022/06/07 05:45:26;;;;;;;;;;;25.60;49.60;;;;;;1553582;75;1088;-58
2022/06/07 05:47:28;;;;;;;;;;;25.70;49.50;;;;;;1554956;75;711;-60
2022/06/07 05:49:29;;;;;;;;;;;25.70;49.40;;;;;;1545744;76;1997;-59
2022/06/07 05:51:31;;;;;;;;;;;25.60;49.40;;;;;;1544569;76;802;-57
2022/06/07 05:53:33;;;;;;;;;;;25.60;49.40;;;;;;1544385;76;813;-57
2022/06/07 05:55:35;;;;;;;;;;;25.60;49.50;;;;;;1543766;75;1271;-58
2022/06/07 05:57:37;;;;;;;;;;;25.60;49.50;;;;;;1546914;76;1508;-60
2022/06/07 05:59:39;;;;;;;;;;;25.50;49.50;;;;;;1551099;75;763;-58
2022/06/07 06:01:41;;;;;;;;;;;25.50;49.60;;;;;;1537562;75;802;-58
2022/06/07 06:03:43;;;;;;;;;;;25.50;49.70;;;;;;1550376;75;802;-59
2022/06/07 06:05:48;;;;;;;;;;;25.40;49.70;;;;;;1558566;75;1085;-58
2022/06/07 06:10:21;;;;;;;;;;;25.40;49.70;;;;;;1555365;75;1616;-60
2022/06/07 06:12:23;;;;;;;;;;;25.30;49.70;;;;;;1543053;76;1482;-60
2022/06/07 06:14:25;;;;;;;;;;;25.30;49.70;;;;;;1543818;76;813;-60
2022/06/07 06:16:27;;;;;;;;;;;25.30;49.70;;;;;;1552037;75;1175;-60
2022/06/07 06:18:29;;;;;;;;;;;25.40;49.70;;;;;;1543849;75;958;-59
2022/06/07 06:20:31;;;;;;;;;;;25.30;49.70;;;;;;1548635;76;678;-58
2022/06/07 06:22:34;;;;;;;;;;;25.30;49.70;;;;;;1543604;75;730;-59
2022/06/07 06:24:36;;;;;;;;;;;25.30;49.70;;;;;;1555045;76;698;-60
2022/06/07 06:26:38;;;;;;;;;;;25.20;49.70;;;;;;1545358;76;1571;-61
2022/06/07 06:28:40;;;;;;;;;;;25.20;49.70;;;;;;1549354;75;1920;-58
2022/06/07 06:30:45;;;;;;;;;;;25.20;49.70;;;;;;1553260;76;770;-60
2022/06/07 06:32:47;;;;;;;;;;;25.20;49.60;;;;;;1550798;75;730;-58
2022/06/07 06:34:49;;;;;;;;;;;25.20;49.60;;;;;;1551801;76;779;-59
2022/06/07 06:36:51;;;;;;;;;;;25.20;49.60;;;;;;1542222;75;1117;-61
2022/06/07 06:38:53;;;;;;;;;;;25.20;49.50;;;;;;1545611;75;692;-59
2022/06/07 06:40:54;;;;;;;;;;;25.10;49.60;;;;;;1544884;75;1549;-60
2022/06/07 06:42:56;;;;;;;;;;;25.10;49.60;;;;;;1544942;75;806;-59
2022/06/07 06:45:00;;;;;;;;;;;25.10;49.60;;;;;;1544961;76;721;-58
2022/06/07 06:47:02;;;;;;;;;;;25.10;49.60;;;;;;1543595;76;1125;-60
2022/06/07 06:49:04;;;;;;;;;;;25.10;49.60;;;;;;1545329;75;1904;-60
2022/06/07 06:51:06;;;;;;;;;;;25.10;49.60;;;;;;1542717;76;740;-59
2022/06/07 06:53:08;;;;;;;;;;;25.10;49.60;;;;;;1544380;75;670;-60
2022/06/07 06:55:11;;;;;;;;;;;25.10;49.60;;;;;;1546328;75;1512;-60
2022/06/07 06:57:13;;;;;;;;;;;25.10;49.50;;;;;;1546275;76;1106;-57
2022/06/07 06:59:15;;;;;;;;;;;25.10;49.50;;;;;;1542872;76;790;-59
2022/06/07 07:01:18;;;;;;;;;;;25.10;49.50;;;;;;1547891;75;727;-59
2022/06/07 07:03:21;;;;;;;;;;;25.10;49.50;;;;;;1543948;75;781;-58
2022/06/07 07:05:23;;;;;;;;;;;25.10;49.50;;;;;;1548946;76;1164;-61
2022/06/07 07:07:25;;;;;;;;;;;25.00;49.50;;;;;;1556803;75;713;-60
2022/06/07 07:09:28;;;;;;;;;;;25.10;49.50;;;;;;1550255;75;1922;-58
2022/06/07 07:11:31;;;;;;;;;;;25.10;49.50;;;;;;1550504;75;797;-58
2022/06/07 07:13:33;;;;;;;;;;;25.00;49.50;;;;;;1552052;75;771;-58
2022/06/07 07:15:35;;;;;;;;;;;25.10;49.50;;;;;;1554673;75;1176;-60
2022/06/07 07:17:37;;;;;;;;;;;25.00;49.50;;;;;;1548894;76;625;-59
2022/06/07 07:19:39;;;;;;;;;;;25.00;49.50;;;;;;1537817;75;736;-59
2022/06/07 07:21:43;;;;;;;;;;;25.10;49.50;;;;;;1547177;75;753;-60
2022/06/07 07:23:45;;;;;;;;;;;25.00;49.50;;;;;;1552354;75;1612;-61
2022/06/07 07:25:47;;;;;;;;;;;25.10;49.40;;;;;;1547062;75;1129;-60
2022/06/07 07:27:50;;;;;;;;;;;25.10;49.40;;;;;;1555028;76;733;-58
2022/06/07 07:29:52;;;;;;;;;;;25.10;49.40;;;;;;1555470;75;1912;-58
2022/06/07 07:31:53;;;;;;;;;;;25.10;49.40;;;;;;1551462;76;730;-58
2022/06/07 07:33:56;;;;;;;;;;;25.00;49.40;;;;;;1549636;76;728;-58
2022/06/07 07:35:58;;;;;;;;;;;25.10;49.40;;;;;;1552804;75;1582;-59
2022/06/07 07:37:59;;;;;;;;;;;25.10;49.40;;;;;;1524461;77;1073;-59
2022/06/07 07:40:01;;;;;;;;;;;25.10;49.40;;;;;;1548985;75;744;-58
2022/06/07 07:42:03;;;;;;;;;;;25.00;49.40;;;;;;1553424;75;796;-58
2022/06/07 07:44:06;;;;;;;;;;;25.00;49.40;;;;;;1555771;75;762;-60
2022/06/07 07:46:08;;;;;;;;;;;25.00;49.40;;;;;;1546811;76;1168;-60
2022/06/07 07:48:10;;;;;;;;;;;25.00;49.30;;;;;;1544412;76;803;-60
2022/06/07 07:50:12;;;;;;;;;;;25.00;49.30;;;;;;1547253;75;1950;-58
2022/06/07 07:52:18;;;;;;;;;;;25.00;49.30;;;;;;1536183;75;793;-60
2022/06/07 07:54:18;;;;;;;;;;;25.00;49.40;;;;;;1544072;75;1464;-60
2022/06/07 07:56:20;;;;;;;;;;;25.00;49.30;;;;;;1558291;75;1146;-58
2022/06/07 07:58:23;;;;;;;;;;;25.00;49.30;;;;;;1551391;75;733;-59
2022/06/07 08:00:25;;;;;;;;;;;25.00;49.30;;;;;;1543941;75;781;-58
2022/06/07 08:02:27;;;;;;;;;;;25.00;49.30;;;;;;1549086;75;783;-58
2022/06/07 08:04:28;;;;;;;;;;;25.00;49.30;;;;;;1541927;75;1548;-59
2022/06/07 08:06:31;;;;;;;;;;;25.00;49.30;;;;;;1555131;75;1137;-59
2022/06/07 08:08:33;;;;;;;;;;;25.00;49.30;;;;;;1547718;75;782;-61
2022/06/07 08:10:35;;;;;;;;;;;25.00;49.30;;;;;;1547008;75;1912;-59
2022/06/07 08:12:36;;;;;;;;;;;24.90;49.30;;;;;;1549636;75;841;-59
2022/06/07 08:14:38;;;;;;;;;;;25.00;49.30;;;;;;1553794;76;746;-57
2022/06/07 08:16:40;;;;;;;;;;;24.90;49.30;;;;;;1547310;76;1190;-58
2022/06/07 08:18:42;;;;;;;;;;;25.00;49.30;;;;;;1538707;76;1591;-58
2022/06/07 08:20:44;;;;;;;;;;;24.90;49.30;;;;;;1543992;76;754;-60
2022/06/07 08:22:46;;;;;;;;;;;25.00;49.40;;;;;;1549783;75;727;-58
2022/06/07 08:24:48;;;;;;;;;;;25.00;49.30;;;;;;1549858;75;721;-58
2022/06/07 08:26:52;;;;;;;;;;;25.00;49.30;;;;;;1546589;75;1140;-58
2022/06/07 08:28:54;;;;;;;;;;;24.90;49.30;;;;;;1548201;75;1914;-60
2022/06/07 08:30:56;;;;;;;;;;;25.00;49.30;;;;;;1537032;75;813;-58
2022/06/07 08:32:58;;;;;;;;;;;25.00;49.30;;;;;;1543857;75;1554;-57
2022/06/07 08:37:37;;;;;;;;;;;24.90;49.20;;;;;;1544240;75;734;-59
2022/06/07 08:39:38;;;;;;;;;;;24.90;49.30;;;;;;1548885;76;1684;-60
2022/06/07 08:41:45;;;;;;;;;;;24.80;49.20;;;;;;1542061;75;812;-58
2022/06/07 08:43:46;;;;;;;;;;;24.90;49.30;;;;;;1543571;75;2131;-58
2022/06/07 08:45:48;;;;;;;;;;;24.90;49.30;;;;;;1551969;76;1208;-59
2022/06/07 08:47:51;;;;;;;;;;;24.90;49.20;;;;;;1548011;76;1635;-60
2022/06/07 08:49:53;;;;;;;;;;;24.90;49.30;;;;;;1555421;75;1912;-57
2022/06/07 08:51:59;;;;;;;;;;;24.90;49.30;;;;;;1552353;75;732;-58
2022/06/07 08:54:04;;;;;;;;;;;25.00;49.30;;;;;;1543683;75;747;-58
2022/06/07 08:56:06;;;;;;;;;;;24.80;49.20;;;;;;1547633;76;1239;-59
2022/06/07 08:58:18;;;;;;;;;;;24.80;49.20;;;;;;1542474;75;763;-59
2022/06/07 09:00:24;;;;;;;;;;;24.80;49.20;;;;;;1545649;76;1579;-58
2022/06/07 09:02:37;;;;;;;;;;;24.80;49.20;;;;;;1549803;75;700;-58
2022/06/07 09:04:40;;;;;;;;;;;24.80;49.20;;;;;;1550551;76;1938;-61
2022/06/07 09:06:43;;;;;;;;;;;24.80;49.10;;;;;;1548485;75;1192;-59
2022/06/07 09:08:46;;;;;;;;;;;24.90;49.20;;;;;;1559010;75;784;-59
2022/06/07 09:13:10;;;;;;;;;;;24.80;49.10;;;;;;1552000;75;1654;-58
2022/06/07 09:15:12;;;;;;;;;;;24.90;49.20;;;;;;1545114;76;1915;-59
2022/06/07 09:17:15;;;;;;;;;;;24.80;49.10;;;;;;1549588;76;1179;-60
2022/06/07 09:19:19;;;;;;;;;;;24.80;49.10;;;;;;1557832;75;697;-59
2022/06/07 09:21:24;;;;;;;;;;;24.80;49.10;;;;;;1549453;75;744;-58
2022/06/07 09:23:31;;;;;;;;;;;24.80;49.20;;;;;;1549243;75;1768;-60
2022/06/07 09:25:35;;;;;;;;;;;24.80;49.10;;;;;;1544773;75;1164;-60
2022/06/07 09:27:36;;;;;;;;;;;24.80;49.10;;;;;;1552895;75;710;-59
2022/06/07 09:29:39;;;;;;;;;;;24.80;49.00;;;;;;1518605;77;1956;-57
2022/06/07 09:31:41;;;;;;;;;;;24.90;49.20;;;;;;1545204;75;735;-57
2022/06/07 09:33:52;;;;;;;;;;;24.80;49.00;;;;;;1556658;75;702;-60
2022/06/07 09:35:59;;;;;;;;;;;24.80;49.00;;;;;;1543159;75;1156;-58
2022/06/07 09:38:08;;;;;;;;;;;24.90;49.10;;;;;;1550100;75;732;-58
2022/06/07 09:40:28;;;;;;;;;;;24.80;49.00;;;;;;1554072;76;2192;-61
2022/06/07 09:42:30;;;;;;;;;;;24.80;48.90;;;;;;1552965;75;1557;-58
2022/06/07 09:44:33;;;;;;;;;;;24.80;49.00;;;;;;1542139;76;706;-59
2022/06/07 09:46:35;;;;;;;;;;;24.80;49.00;;;;;;1555988;76;1245;-58
2022/06/07 09:48:38;;;;;;;;;;;24.80;49.00;;;;;;1554373;75;705;-57
2022/06/07 09:50:40;;;;;;;;;;;24.80;48.90;;;;;;1550326;76;1925;-59
2022/06/07 09:52:43;;;;;;;;;;;24.80;48.90;;;;;;1541512;75;705;-57
2022/06/07 09:54:45;;;;;;;;;;;24.80;48.90;;;;;;1542714;75;804;-59
2022/06/07 09:56:58;;;;;;;;;;;24.80;48.90;;;;;;1543797;75;1374;-60
2022/06/07 09:59:04;;;;;;;;;;;24.80;48.90;;;;;;1543680;75;770;-59
2022/06/07 10:01:08;;;;;;;;;;;24.80;48.90;;;;;;1539785;75;732;-57
2022/06/07 10:03:15;;;;;;;;;;;24.80;48.80;;;;;;1520047;76;1796;-57
2022/06/07 10:05:27;;;;;;;;;;;24.80;48.90;;;;;;1534344;76;1817;-59
2022/06/07 10:07:31;;;;;;;;;;;24.80;48.90;;;;;;1542512;75;690;-58
2022/06/07 10:09:37;;;;;;;;;;;24.80;48.80;;;;;;1540444;76;1920;-60
2022/06/07 10:11:50;;;;;;;;;;;24.80;48.80;;;;;;1545332;76;1874;-59
2022/06/07 10:13:59;;;;;;;;;;;24.80;48.90;;;;;;1540913;75;2060;-59
2022/06/07 10:16:02;;;;;;;;;;;24.80;48.80;;;;;;1549810;75;1170;-60
2022/06/07 10:18:07;;;;;;;;;;;24.80;48.80;;;;;;1547140;76;718;-58
2022/06/07 10:20:28;;;;;;;;;;;24.80;48.80;;;;;;1540599;75;791;-60
2022/06/07 10:22:41;;;;;;;;;;;24.80;48.80;;;;;;1540227;75;718;-59
2022/06/07 10:24:51;;;;;;;;;;;24.80;48.80;;;;;;1546506;75;1674;-58
2022/06/07 10:27:11;;;;;;;;;;;24.80;48.80;;;;;;1539867;75;1709;-58
2022/06/07 10:29:31;;;;;;;;;;;24.70;48.80;;;;;;1550078;75;709;-58
2022/06/07 10:31:40;;;;;;;;;;;24.80;48.70;;;;;;1541973;75;1527;-59
2022/06/07 10:33:50;;;;;;;;;;;24.80;48.70;;;;;;1546761;75;710;-60
2022/06/07 10:36:03;;;;;;;;;;;24.80;48.70;;;;;;1547322;76;1152;-59
2022/06/07 10:38:12;;;;;;;;;;;24.80;48.70;;;;;;1539381;76;795;-60
2022/06/07 10:40:16;;;;;;;;;;;24.80;48.70;;;;;;1545193;76;1567;-60
2022/06/07 10:42:25;;;;;;;;;;;24.80;48.70;;;;;;1551429;75;787;-59
2022/06/07 10:44:32;;;;;;;;;;;24.80;48.70;;;;;;1543463;75;603;-61
2022/06/07 10:46:35;;;;;;;;;;;24.80;48.70;;;;;;1552522;75;1157;-58
2022/06/07 10:48:50;;;;;;;;;;;24.80;48.70;;;;;;1542509;75;755;-60
2022/06/07 10:50:54;;;;;;;;;;;24.80;48.70;;;;;;1538854;75;1928;-59
2022/06/07 10:52:59;;;;;;;;;;;24.80;48.70;;;;;;1535677;75;1572;-61
2022/06/07 10:55:13;;;;;;;;;;;24.80;48.70;;;;;;1557175;76;911;-58
2022/06/07 10:57:19;;;;;;;;;;;24.80;48.70;;;;;;1542013;76;1101;-58
2022/06/07 10:59:21;;;;;;;;;;;24.80;48.60;;;;;;1541186;75;1888;-58
2022/06/07 11:01:25;;;;;;;;;;;24.80;48.60;;;;;;1543440;75;716;-60
2022/06/07 11:03:31;;;;;;;;;;;24.80;48.70;;;;;;1543947;76;1751;-61
2022/06/07 11:10:17;;;;;;;;;;;24.80;48.60;;;;;;1554107;75;1941;-60
2022/06/07 11:12:27;;;;;;;;;;;24.80;48.60;;;;;;1549860;75;700;-60
2022/06/07 11:14:46;;;;;;;;;;;24.80;48.60;;;;;;1539222;76;1337;-60
2022/06/07 11:16:52;;;;;;;;;;;24.80;48.60;;;;;;1541400;76;1140;-58
2022/06/07 11:18:55;;;;;;;;;;;24.80;48.60;;;;;;1543328;76;717;-60
2022/06/07 11:21:04;;;;;;;;;;;24.80;48.60;;;;;;1543851;75;1526;-59
2022/06/07 11:23:10;;;;;;;;;;;24.80;48.60;;;;;;1540219;75;771;-60
2022/06/07 11:25:20;;;;;;;;;;;24.80;48.60;;;;;;1543349;75;1898;-60
2022/06/07 11:27:22;;;;;;;;;;;24.80;48.60;;;;;;1540043;75;1903;-60
2022/06/07 11:29:25;;;;;;;;;;;24.80;48.60;;;;;;1544587;75;693;-61
2022/06/07 11:31:28;;;;;;;;;;;24.80;48.60;;;;;;1542700;75;1938;-59
2022/06/07 11:33:43;;;;;;;;;;;24.80;48.60;;;;;;1546981;75;783;-61
2022/06/07 11:35:53;;;;;;;;;;;24.80;48.60;;;;;;1466871;79;1601;-59
2022/06/07 11:37:55;;;;;;;;;;;24.80;48.60;;;;;;1531462;76;922;-61
2022/06/07 11:39:57;;;;;;;;;;;24.80;48.60;;;;;;1521608;77;765;-59
2022/06/07 11:42:00;;;;;;;;;;;24.80;48.60;;;;;;1551545;76;785;-58
2022/06/07 11:44:03;;;;;;;;;;;24.80;48.60;;;;;;1536082;75;1065;-60
2022/06/07 11:46:07;;;;;;;;;;;24.80;48.50;;;;;;1544025;76;1089;-59
2022/06/07 11:48:13;;;;;;;;;;;24.80;48.50;;;;;;1555463;75;773;-61
2022/06/07 11:50:28;;;;;;;;;;;24.80;48.40;;;;;;1555739;75;1928;-58
2022/06/07 11:52:32;;;;;;;;;;;24.80;48.40;;;;;;1546603;75;698;-59
2022/06/07 11:54:42;;;;;;;;;;;24.80;48.50;;;;;;1546239;75;722;-59
2022/06/07 11:56:44;;;;;;;;;;;24.80;48.50;;;;;;1544444;75;1093;-61
2022/06/07 11:58:54;;;;;;;;;;;24.80;48.40;;;;;;1549804;75;946;-60
2022/06/07 12:00:56;;;;;;;;;;;24.80;48.40;;;;;;1548922;75;785;-59
2022/06/07 12:03:08;;;;;;;;;;;24.90;48.40;;;;;;1544693;76;763;-58
2022/06/07 12:05:26;;;;;;;;;;;24.80;48.30;;;;;;1541050;76;1494;-59
2022/06/07 12:07:27;;;;;;;;;;;24.80;48.40;;;;;;1547700;75;1600;-60
2022/06/07 12:09:29;;;;;;;;;;;24.70;48.40;;;;;;1544860;76;1972;-61
2022/06/07 12:11:32;;;;;;;;;;;24.90;48.40;;;;;;1548273;75;1945;-59
2022/06/07 12:13:51;;;;;;;;;;;24.80;48.30;;;;;;1540880;76;694;-61
2022/06/07 12:15:53;;;;;;;;;;;24.80;48.30;;;;;;1542511;75;1146;-59
2022/06/07 12:17:56;;;;;;;;;;;24.90;48.40;;;;;;1544510;76;1540;-58
2022/06/07 12:19:58;;;;;;;;;;;24.80;48.30;;;;;;1545543;75;793;-60
2022/06/07 12:22:07;;;;;;;;;;;24.80;48.20;;;;;;1547322;75;737;-59
2022/06/07 12:24:14;;;;;;;;;;;24.80;48.20;;;;;;1550496;76;733;-60
2022/06/07 12:26:18;;;;;;;;;;;24.80;48.10;;;;;;1552623;75;1177;-61
2022/06/07 12:28:21;;;;;;;;;;;24.80;48.20;;;;;;1552733;76;712;-58
2022/06/07 12:30:25;;;;;;;;;;;24.80;48.20;;;;;;1552914;75;1908;-58
2022/06/07 12:32:34;;;;;;;;;;;24.80;48.10;;;;;;1544030;75;1582;-59
2022/06/07 12:34:37;;;;;;;;;;;24.80;48.10;;;;;;1545685;75;704;-59